sensor_id;sensor_type;location;lat;lon;timestamp;pressure;altitude;pressure_sealevel;temperature;humidity
62510;BME280;48558;48.242;11.654;2023-05-12T00:03:58;95923.53;;;10.15;100.00
62510;BME280;48558;48.242;11.654;2023-05-12T00:08:11;95918.81;;;10.06;100.00
62510;BME280;48558;48.242;11.654;2023-05-12T00:12:23;95926.78;;;10.04;100.00
62510;BME280;48558;48.242;11.654;2023-05-12T00:16:36;95930.59;;;10.06;100.00
62510;BME280;48558;48.242;11.654;2023-05-12T00:20:49;95927.66;;;10.10;100.00
62510;BME280;48558;48.242;11.654;2023-05-12T00:25:11;95926.44;;;10.11;100.00
62510;BME280;48558;48.242;11.654;2023-05-12T00:29:24;95919.38;;;10.10;100.00
62510;BME280;48558;48.242;11.654;2023-05-12T00:33:46;95925.69;;;10.10;100.00
62510;BME280;48558;48.242;11.654;2023-05-12T00:37:59;95921.38;;;10.09;100.00
62510;BME280;48558;48.242;11.654;2023-05-12T00:42:11;95923.06;;;10.07;100.00
62510;BME280;48558;48.242;11.654;2023-05-12T00:46:24;95917.09;;;10.08;100.00
62510;BME280;48558;48.242;11.654;2023-05-12T00:50:36;95909.56;;;10.09;100.00
62510;BME280;48558;48.242;11.654;2023-05-12T00:54:49;95893.81;;;10.00;100.00
62510;BME280;48558;48.242;11.654;2023-05-12T00:59:01;95906.78;;;10.18;100.00
62510;BME280;48558;48.242;11.654;2023-05-12T01:03:14;95913.31;;;10.30;100.00
62510;BME280;48558;48.242;11.654;2023-05-12T01:07:30;95911.78;;;10.29;100.00
62510;BME280;48558;48.242;11.654;2023-05-12T01:11:43;95920.81;;;10.29;100.00
62510;BME280;48558;48.242;11.654;2023-05-12T01:15:57;95914.19;;;10.12;100.00
62510;BME280;48558;48.242;11.654;2023-05-12T01:20:13;95916.75;;;10.16;100.00
62510;BME280;48558;48.242;11.654;2023-05-12T01:24:29;95922.72;;;10.23;100.00
62510;BME280;48558;48.242;11.654;2023-05-12T01:28:44;95911.56;;;10.18;100.00
62510;BME280;48558;48.242;11.654;2023-05-12T01:32:58;95902.06;;;10.09;100.00
62510;BME280;48558;48.242;11.654;2023-05-12T01:37:11;95896.25;;;10.07;100.00
62510;BME280;48558;48.242;11.654;2023-05-12T01:41:33;95890.34;;;9.91;100.00
62510;BME280;48558;48.242;11.654;2023-05-12T01:45:46;95908.56;;;9.97;100.00
62510;BME280;48558;48.242;11.654;2023-05-12T01:49:59;95914.50;;;10.05;100.00
62510;BME280;48558;48.242;11.654;2023-05-12T01:54:12;95911.75;;;10.05;100.00
62510;BME280;48558;48.242;11.654;2023-05-12T01:58:34;95915.84;;;10.09;100.00
62510;BME280;48558;48.242;11.654;2023-05-12T02:02:47;95912.31;;;10.09;100.00
62510;BME280;48558;48.242;11.654;2023-05-12T02:07:09;95910.03;;;10.07;100.00
62510;BME280;48558;48.242;11.654;2023-05-12T02:11:22;95903.31;;;10.08;100.00
62510;BME280;48558;48.242;11.654;2023-05-12T02:15:44;95906.34;;;10.20;100.00
62510;BME280;48558;48.242;11.654;2023-05-12T02:19:57;95907.97;;;10.26;100.00
62510;BME280;48558;48.242;11.654;2023-05-12T02:24:09;95910.44;;;10.24;100.00
62510;BME280;48558;48.242;11.654;2023-05-12T02:28:35;95907.34;;;10.31;100.00
62510;BME280;48558;48.242;11.654;2023-05-12T02:32:47;95899.06;;;10.31;100.00
62510;BME280;48558;48.242;11.654;2023-05-12T02:37:00;95898.06;;;10.20;100.00
62510;BME280;48558;48.242;11.654;2023-05-12T02:41:13;95892.53;;;10.20;100.00
62510;BME280;48558;48.242;11.654;2023-05-12T02:45:26;95895.88;;;10.24;100.00
62510;BME280;48558;48.242;11.654;2023-05-12T02:49:39;95890.13;;;10.13;100.00
62510;BME280;48558;48.242;11.654;2023-05-12T02:53:52;95895.88;;;10.24;100.00
62510;BME280;48558;48.242;11.654;2023-05-12T02:58:08;95884.25;;;10.20;100.00
62510;BME280;48558;48.242;11.654;2023-05-12T03:02:21;95900.28;;;10.30;100.00
62510;BME280;48558;48.242;11.654;2023-05-12T03:06:34;95903.88;;;10.22;100.00
62510;BME280;48558;48.242;11.654;2023-05-12T03:10:51;95903.81;;;10.31;100.00
62510;BME280;48558;48.242;11.654;2023-05-12T03:15:04;95905.31;;;10.32;100.00
62510;BME280;48558;48.242;11.654;2023-05-12T03:19:17;95912.91;;;10.22;100.00
62510;BME280;48558;48.242;11.654;2023-05-12T03:23:30;95908.31;;;10.19;100.00
62510;BME280;48558;48.242;11.654;2023-05-12T03:27:52;95915.63;;;9.98;100.00
62510;BME280;48558;48.242;11.654;2023-05-12T03:32:04;95908.88;;;9.99;100.00
62510;BME280;48558;48.242;11.654;2023-05-12T03:36:17;95910.88;;;9.99;100.00
62510;BME280;48558;48.242;11.654;2023-05-12T03:40:40;95920.25;;;9.92;100.00
62510;BME280;48558;48.242;11.654;2023-05-12T03:44:52;95912.84;;;9.98;100.00
62510;BME280;48558;48.242;11.654;2023-05-12T03:49:13;95914.72;;;9.92;100.00
62510;BME280;48558;48.242;11.654;2023-05-12T03:53:35;95901.53;;;9.96;100.00
62510;BME280;48558;48.242;11.654;2023-05-12T03:57:48;95912.56;;;9.96;100.00
62510;BME280;48558;48.242;11.654;2023-05-12T04:02:01;95901.03;;;9.98;100.00
62510;BME280;48558;48.242;11.654;2023-05-12T04:06:13;95905.94;;;10.03;100.00
62510;BME280;48558;48.242;11.654;2023-05-12T04:10:26;95895.03;;;10.08;100.00
62510;BME280;48558;48.242;11.654;2023-05-12T04:14:38;95904.78;;;10.19;100.00
62510;BME280;48558;48.242;11.654;2023-05-12T04:18:53;95916.31;;;10.17;100.00
62510;BME280;48558;48.242;11.654;2023-05-12T04:23:07;95918.88;;;10.21;100.00
62510;BME280;48558;48.242;11.654;2023-05-12T04:27:20;95919.13;;;10.32;100.00
62510;BME280;48558;48.242;11.654;2023-05-12T04:31:42;95900.75;;;10.29;100.00
62510;BME280;48558;48.242;11.654;2023-05-12T04:35:55;95914.94;;;10.36;100.00
62510;BME280;48558;48.242;11.654;2023-05-12T04:40:08;95928.53;;;10.49;100.00
62510;BME280;48558;48.242;11.654;2023-05-12T04:44:21;95921.19;;;10.69;100.00
62510;BME280;48558;48.242;11.654;2023-05-12T04:48:33;95926.03;;;10.74;100.00
62510;BME280;48558;48.242;11.654;2023-05-12T04:52:46;95911.63;;;10.70;100.00
62510;BME280;48558;48.242;11.654;2023-05-12T04:56:58;95904.44;;;10.88;100.00
62510;BME280;48558;48.242;11.654;2023-05-12T05:01:11;95930.75;;;10.98;100.00
62510;BME280;48558;48.242;11.654;2023-05-12T05:05:24;95931.16;;;11.05;100.00
62510;BME280;48558;48.242;11.654;2023-05-12T05:09:37;95940.88;;;11.15;100.00
62510;BME280;48558;48.242;11.654;2023-05-12T05:13:59;95940.09;;;11.00;100.00
62510;BME280;48558;48.242;11.654;2023-05-12T05:18:12;95949.66;;;11.14;100.00
62510;BME280;48558;48.242;11.654;2023-05-12T05:22:24;95943.06;;;11.11;100.00
62510;BME280;48558;48.242;11.654;2023-05-12T05:26:37;95935.28;;;11.39;100.00
62510;BME280;48558;48.242;11.654;2023-05-12T05:30:49;95923.53;;;11.29;100.00
62510;BME280;48558;48.242;11.654;2023-05-12T05:35:12;95942.25;;;11.64;100.00
62510;BME280;48558;48.242;11.654;2023-05-12T05:39:24;95946.75;;;11.76;100.00
62510;BME280;48558;48.242;11.654;2023-05-12T05:43:37;95944.34;;;11.83;100.00
62510;BME280;48558;48.242;11.654;2023-05-12T05:47:50;95951.03;;;11.77;100.00
62510;BME280;48558;48.242;11.654;2023-05-12T05:52:04;95957.88;;;12.31;100.00
62510;BME280;48558;48.242;11.654;2023-05-12T05:56:17;95958.81;;;12.62;100.00
62510;BME280;48558;48.242;11.654;2023-05-12T06:00:29;95955.75;;;13.01;100.00
62510;BME280;48558;48.242;11.654;2023-05-12T06:04:42;95955.34;;;13.28;100.00
62510;BME280;48558;48.242;11.654;2023-05-12T06:08:54;95942.88;;;13.43;100.00
62510;BME280;48558;48.242;11.654;2023-05-12T06:13:16;95946.31;;;13.33;100.00
62510;BME280;48558;48.242;11.654;2023-05-12T06:17:39;95950.16;;;13.66;100.00
62510;BME280;48558;48.242;11.654;2023-05-12T06:21:51;95953.44;;;13.65;100.00
62510;BME280;48558;48.242;11.654;2023-05-12T06:26:14;95949.53;;;13.51;100.00
62510;BME280;48558;48.242;11.654;2023-05-12T06:30:26;95951.53;;;13.25;100.00
62510;BME280;48558;48.242;11.654;2023-05-12T06:34:39;95962.38;;;13.75;100.00
62510;BME280;48558;48.242;11.654;2023-05-12T06:38:51;95959.84;;;14.08;100.00
62510;BME280;48558;48.242;11.654;2023-05-12T06:43:05;95968.97;;;13.51;100.00
62510;BME280;48558;48.242;11.654;2023-05-12T06:47:17;95968.88;;;13.97;100.00
62510;BME280;48558;48.242;11.654;2023-05-12T06:51:37;95959.69;;;14.54;100.00
62510;BME280;48558;48.242;11.654;2023-05-12T06:56:00;95970.69;;;14.37;100.00
62510;BME280;48558;48.242;11.654;2023-05-12T07:00:23;95970.38;;;13.98;100.00
62510;BME280;48558;48.242;11.654;2023-05-12T07:04:46;95973.25;;;14.83;100.00
62510;BME280;48558;48.242;11.654;2023-05-12T07:08:58;95950.69;;;14.70;100.00
62510;BME280;48558;48.242;11.654;2023-05-12T07:13:11;95966.06;;;15.30;100.00
62510;BME280;48558;48.242;11.654;2023-05-12T07:17:24;95976.28;;;15.55;100.00
62510;BME280;48558;48.242;11.654;2023-05-12T07:21:36;95975.78;;;15.56;100.00
62510;BME280;48558;48.242;11.654;2023-05-12T07:25:49;95966.16;;;15.63;100.00
62510;BME280;48558;48.242;11.654;2023-05-12T07:30:04;95963.16;;;14.91;100.00
62510;BME280;48558;48.242;11.654;2023-05-12T07:34:17;95967.59;;;15.25;100.00
62510;BME280;48558;48.242;11.654;2023-05-12T07:38:30;95972.09;;;15.12;100.00
62510;BME280;48558;48.242;11.654;2023-05-12T07:42:43;95961.53;;;15.32;100.00
62510;BME280;48558;48.242;11.654;2023-05-12T07:46:55;95971.03;;;15.73;100.00
62510;BME280;48558;48.242;11.654;2023-05-12T07:51:08;95978.31;;;15.54;100.00
62510;BME280;48558;48.242;11.654;2023-05-12T07:55:21;95966.72;;;16.22;100.00
62510;BME280;48558;48.242;11.654;2023-05-12T07:59:34;95964.19;;;16.19;100.00
62510;BME280;48558;48.242;11.654;2023-05-12T08:03:56;95974.84;;;16.26;100.00
62510;BME280;48558;48.242;11.654;2023-05-12T08:08:09;95975.06;;;16.22;100.00
62510;BME280;48558;48.242;11.654;2023-05-12T08:12:27;95978.88;;;16.03;100.00
62510;BME280;48558;48.242;11.654;2023-05-12T08:16:40;95967.72;;;16.25;100.00
62510;BME280;48558;48.242;11.654;2023-05-12T08:20:56;95972.28;;;16.39;100.00
62510;BME280;48558;48.242;11.654;2023-05-12T08:25:09;95961.91;;;15.95;100.00
62510;BME280;48558;48.242;11.654;2023-05-12T08:29:27;95958.84;;;16.43;100.00
62510;BME280;48558;48.242;11.654;2023-05-12T08:33:40;95972.59;;;15.16;100.00
62510;BME280;48558;48.242;11.654;2023-05-12T08:38:02;95979.38;;;14.92;100.00
62510;BME280;48558;48.242;11.654;2023-05-12T08:46:53;95976.84;;;15.75;100.00
62510;BME280;48558;48.242;11.654;2023-05-12T08:51:17;95974.28;;;15.83;100.00
62510;BME280;48558;48.242;11.654;2023-05-12T08:55:30;95983.44;;;16.28;100.00
62510;BME280;48558;48.242;11.654;2023-05-12T08:59:44;95977.09;;;16.38;100.00
62510;BME280;48558;48.242;11.654;2023-05-12T09:03:58;95979.66;;;16.03;100.00
62510;BME280;48558;48.242;11.654;2023-05-12T09:08:10;95982.44;;;15.98;100.00
62510;BME280;48558;48.242;11.654;2023-05-12T09:12:25;95958.38;;;15.89;100.00
62510;BME280;48558;48.242;11.654;2023-05-12T09:16:44;95980.63;;;16.44;100.00
62510;BME280;48558;48.242;11.654;2023-05-12T09:20:59;95991.75;;;15.61;100.00
62510;BME280;48558;48.242;11.654;2023-05-12T09:25:22;95988.25;;;16.27;100.00
62510;BME280;48558;48.242;11.654;2023-05-12T09:29:46;95982.41;;;16.31;100.00
62510;BME280;48558;48.242;11.654;2023-05-12T09:34:31;95985.16;;;16.70;100.00
62510;BME280;48558;48.242;11.654;2023-05-12T09:39:06;95986.47;;;16.69;100.00
62510;BME280;48558;48.242;11.654;2023-05-12T09:43:20;95978.09;;;16.24;100.00
62510;BME280;48558;48.242;11.654;2023-05-12T09:47:34;95997.81;;;16.87;100.00
62510;BME280;48558;48.242;11.654;2023-05-12T09:51:57;95995.59;;;16.36;100.00
62510;BME280;48558;48.242;11.654;2023-05-12T09:56:20;95980.53;;;15.39;100.00
62510;BME280;48558;48.242;11.654;2023-05-12T10:00:35;95985.69;;;16.63;100.00
62510;BME280;48558;48.242;11.654;2023-05-12T10:05:14;95976.59;;;16.62;100.00
62510;BME280;48558;48.242;11.654;2023-05-12T10:09:31;95985.69;;;16.63;100.00
62510;BME280;48558;48.242;11.654;2023-05-12T10:13:46;95983.09;;;17.50;100.00
62510;BME280;48558;48.242;11.654;2023-05-12T10:17:59;95985.19;;;18.79;100.00
62510;BME280;48558;48.242;11.654;2023-05-12T10:22:14;95981.91;;;19.98;91.17
62510;BME280;48558;48.242;11.654;2023-05-12T10:26:27;95995.09;;;18.80;100.00
62510;BME280;48558;48.242;11.654;2023-05-12T10:30:41;95999.94;;;17.85;100.00
62510;BME280;48558;48.242;11.654;2023-05-12T10:34:54;95991.41;;;17.09;100.00
62510;BME280;48558;48.242;11.654;2023-05-12T10:39:07;95996.72;;;17.70;100.00
62510;BME280;48558;48.242;11.654;2023-05-12T10:43:47;95968.38;;;17.49;100.00
62510;BME280;48558;48.242;11.654;2023-05-12T10:48:14;95978.88;;;17.27;100.00
62510;BME280;48558;48.242;11.654;2023-05-12T10:52:27;95993.03;;;17.45;100.00
62510;BME280;48558;48.242;11.654;2023-05-12T10:56:43;95988.50;;;16.68;100.00
62510;BME280;48558;48.242;11.654;2023-05-12T11:01:05;95988.91;;;16.94;100.00
62510;BME280;48558;48.242;11.654;2023-05-12T11:05:19;95991.56;;;16.37;100.00
62510;BME280;48558;48.242;11.654;2023-05-12T11:09:40;95994.84;;;15.91;100.00
62510;BME280;48558;48.242;11.654;2023-05-12T11:13:59;96005.19;;;15.68;100.00
62510;BME280;48558;48.242;11.654;2023-05-12T11:18:12;95993.00;;;15.60;100.00
62510;BME280;48558;48.242;11.654;2023-05-12T11:22:25;96006.16;;;15.54;100.00
62510;BME280;48558;48.242;11.654;2023-05-12T11:26:39;96000.41;;;15.86;100.00
62510;BME280;48558;48.242;11.654;2023-05-12T11:30:52;95993.31;;;16.18;100.00
62510;BME280;48558;48.242;11.654;2023-05-12T11:35:14;96011.44;;;17.07;100.00
62510;BME280;48558;48.242;11.654;2023-05-12T11:39:28;96012.31;;;16.75;100.00
62510;BME280;48558;48.242;11.654;2023-05-12T11:43:44;95991.03;;;16.33;100.00
62510;BME280;48558;48.242;11.654;2023-05-12T11:48:12;96008.50;;;15.78;100.00
62510;BME280;48558;48.242;11.654;2023-05-12T11:52:26;96005.97;;;16.46;100.00
62510;BME280;48558;48.242;11.654;2023-05-12T11:56:52;96006.50;;;16.45;100.00
62510;BME280;48558;48.242;11.654;2023-05-12T12:01:09;96003.97;;;16.08;100.00
62510;BME280;48558;48.242;11.654;2023-05-12T12:05:23;96015.97;;;15.33;100.00
62510;BME280;48558;48.242;11.654;2023-05-12T12:09:39;96022.53;;;15.30;100.00
62510;BME280;48558;48.242;11.654;2023-05-12T12:13:54;96028.44;;;15.54;100.00
62510;BME280;48558;48.242;11.654;2023-05-12T12:18:09;96021.19;;;14.67;100.00
62510;BME280;48558;48.242;11.654;2023-05-12T12:22:22;96026.19;;;15.69;100.00
62510;BME280;48558;48.242;11.654;2023-05-12T12:26:34;96018.25;;;15.40;100.00
62510;BME280;48558;48.242;11.654;2023-05-12T12:30:49;96025.84;;;14.86;100.00
62510;BME280;48558;48.242;11.654;2023-05-12T12:35:02;96032.50;;;15.53;100.00
62510;BME280;48558;48.242;11.654;2023-05-12T12:39:17;96022.72;;;16.19;100.00
62510;BME280;48558;48.242;11.654;2023-05-12T12:43:30;96022.47;;;16.72;100.00
62510;BME280;48558;48.242;11.654;2023-05-12T12:47:43;96017.25;;;17.20;100.00
62510;BME280;48558;48.242;11.654;2023-05-12T12:51:56;96025.00;;;16.70;100.00
62510;BME280;48558;48.242;11.654;2023-05-12T12:56:08;96024.22;;;16.42;100.00
62510;BME280;48558;48.242;11.654;2023-05-12T13:00:21;96023.50;;;16.41;100.00
62510;BME280;48558;48.242;11.654;2023-05-12T13:04:34;96021.19;;;16.45;100.00
62510;BME280;48558;48.242;11.654;2023-05-12T13:08:47;96020.34;;;17.11;100.00
62510;BME280;48558;48.242;11.654;2023-05-12T13:13:01;96026.25;;;18.36;100.00
62510;BME280;48558;48.242;11.654;2023-05-12T13:17:13;96018.44;;;16.62;100.00
62510;BME280;48558;48.242;11.654;2023-05-12T13:21:26;96017.16;;;16.30;100.00
62510;BME280;48558;48.242;11.654;2023-05-12T13:25:39;96020.44;;;16.45;100.00
62510;BME280;48558;48.242;11.654;2023-05-12T13:29:51;96018.91;;;16.22;100.00
62510;BME280;48558;48.242;11.654;2023-05-12T13:34:04;96017.81;;;15.58;100.00
62510;BME280;48558;48.242;11.654;2023-05-12T13:38:17;96022.22;;;15.17;100.00
62510;BME280;48558;48.242;11.654;2023-05-12T13:42:30;96020.44;;;14.66;100.00
62510;BME280;48558;48.242;11.654;2023-05-12T13:46:47;96000.63;;;14.22;100.00
62510;BME280;48558;48.242;11.654;2023-05-12T13:51:00;96029.72;;;13.70;100.00
62510;BME280;48558;48.242;11.654;2023-05-12T13:55:12;96030.38;;;13.85;100.00
62510;BME280;48558;48.242;11.654;2023-05-12T13:59:31;96026.50;;;13.51;100.00
62510;BME280;48558;48.242;11.654;2023-05-12T14:03:44;96016.78;;;13.61;100.00
62510;BME280;48558;48.242;11.654;2023-05-12T14:07:57;96019.59;;;13.92;100.00
62510;BME280;48558;48.242;11.654;2023-05-12T14:12:09;96018.19;;;14.08;100.00
62510;BME280;48558;48.242;11.654;2023-05-12T14:16:22;96026.53;;;14.33;100.00
62510;BME280;48558;48.242;11.654;2023-05-12T14:20:41;96027.31;;;14.40;100.00
62510;BME280;48558;48.242;11.654;2023-05-12T14:24:53;96020.09;;;14.53;100.00
62510;BME280;48558;48.242;11.654;2023-05-12T14:29:13;96027.34;;;14.82;100.00
62510;BME280;48558;48.242;11.654;2023-05-12T14:33:25;96029.19;;;14.54;100.00
62510;BME280;48558;48.242;11.654;2023-05-12T14:37:38;96025.84;;;14.86;100.00
62510;BME280;48558;48.242;11.654;2023-05-12T14:41:50;96032.16;;;14.13;100.00
62510;BME280;48558;48.242;11.654;2023-05-12T14:46:03;96033.84;;;14.05;100.00
62510;BME280;48558;48.242;11.654;2023-05-12T14:50:17;96029.91;;;14.49;100.00
62510;BME280;48558;48.242;11.654;2023-05-12T14:54:32;96038.00;;;14.47;100.00
62510;BME280;48558;48.242;11.654;2023-05-12T14:58:54;96037.28;;;14.52;100.00
62510;BME280;48558;48.242;11.654;2023-05-12T15:03:17;96044.81;;;14.46;100.00
62510;BME280;48558;48.242;11.654;2023-05-12T15:07:32;96050.94;;;14.92;100.00
62510;BME280;48558;48.242;11.654;2023-05-12T15:11:49;96049.97;;;14.58;100.00
62510;BME280;48558;48.242;11.654;2023-05-12T15:16:02;96027.09;;;14.43;100.00
62510;BME280;48558;48.242;11.654;2023-05-12T15:20:15;96049.56;;;14.40;100.00
62510;BME280;48558;48.242;11.654;2023-05-12T15:24:28;96039.03;;;14.49;100.00
62510;BME280;48558;48.242;11.654;2023-05-12T15:28:41;96048.78;;;14.33;100.00
62510;BME280;48558;48.242;11.654;2023-05-12T15:32:53;96035.31;;;14.01;100.00
62510;BME280;48558;48.242;11.654;2023-05-12T15:37:06;96047.19;;;14.01;100.00
62510;BME280;48558;48.242;11.654;2023-05-12T15:41:28;96038.03;;;13.24;100.00
62510;BME280;48558;48.242;11.654;2023-05-12T15:45:41;96058.28;;;13.50;100.00
62510;BME280;48558;48.242;11.654;2023-05-12T15:49:53;96053.75;;;13.52;100.00
62510;BME280;48558;48.242;11.654;2023-05-12T15:54:06;96059.75;;;13.45;100.00
62510;BME280;48558;48.242;11.654;2023-05-12T15:58:20;96063.41;;;13.57;100.00
62510;BME280;48558;48.242;11.654;2023-05-12T16:02:32;96059.56;;;13.75;100.00
62510;BME280;48558;48.242;11.654;2023-05-12T16:06:45;96063.91;;;13.35;100.00
62510;BME280;48558;48.242;11.654;2023-05-12T16:11:05;96058.50;;;13.46;100.00
62510;BME280;48558;48.242;11.654;2023-05-12T16:15:18;96058.34;;;13.55;100.00
62510;BME280;48558;48.242;11.654;2023-05-12T16:19:32;96066.72;;;13.01;100.00
62510;BME280;48558;48.242;11.654;2023-05-12T16:23:44;96064.13;;;13.32;100.00
62510;BME280;48558;48.242;11.654;2023-05-12T16:27:57;96059.75;;;13.05;100.00
62510;BME280;48558;48.242;11.654;2023-05-12T16:32:10;96064.41;;;13.34;100.00
62510;BME280;48558;48.242;11.654;2023-05-12T16:36:23;96028.16;;;13.03;100.00
62510;BME280;48558;48.242;11.654;2023-05-12T16:40:36;96056.28;;;13.30;100.00
62510;BME280;48558;48.242;11.654;2023-05-12T16:44:58;96055.88;;;13.17;100.00
62510;BME280;48558;48.242;11.654;2023-05-12T16:49:10;96067.34;;;12.90;100.00
62510;BME280;48558;48.242;11.654;2023-05-12T16:53:23;96059.53;;;12.74;100.00
62510;BME280;48558;48.242;11.654;2023-05-12T16:57:35;96057.78;;;12.91;100.00
62510;BME280;48558;48.242;11.654;2023-05-12T17:01:48;96063.38;;;12.96;100.00
62510;BME280;48558;48.242;11.654;2023-05-12T17:11:23;96061.31;;;12.57;100.00
62510;BME280;48558;48.242;11.654;2023-05-12T17:15:36;96074.50;;;12.62;100.00
62510;BME280;48558;48.242;11.654;2023-05-12T17:19:49;96069.81;;;12.53;100.00
62510;BME280;48558;48.242;11.654;2023-05-12T17:24:05;96078.13;;;12.53;100.00
62510;BME280;48558;48.242;11.654;2023-05-12T17:28:18;96091.16;;;12.33;100.00
62510;BME280;48558;48.242;11.654;2023-05-12T17:32:32;96083.16;;;12.20;100.00
62510;BME280;48558;48.242;11.654;2023-05-12T17:36:45;96081.06;;;12.30;100.00
62510;BME280;48558;48.242;11.654;2023-05-12T17:40:57;96085.81;;;12.14;100.00
62510;BME280;48558;48.242;11.654;2023-05-12T17:45:10;96099.78;;;12.20;100.00
62510;BME280;48558;48.242;11.654;2023-05-12T17:49:26;96100.53;;;12.20;100.00
62510;BME280;48558;48.242;11.654;2023-05-12T17:53:38;96082.03;;;12.12;100.00
62510;BME280;48558;48.242;11.654;2023-05-12T17:57:51;96107.22;;;12.29;100.00
62510;BME280;48558;48.242;11.654;2023-05-12T18:02:12;96105.41;;;12.11;100.00
62510;BME280;48558;48.242;11.654;2023-05-12T18:06:24;96106.72;;;12.01;100.00
62510;BME280;48558;48.242;11.654;2023-05-12T18:10:37;96100.13;;;11.84;100.00
62510;BME280;48558;48.242;11.654;2023-05-12T18:14:52;96095.00;;;11.91;100.00
62510;BME280;48558;48.242;11.654;2023-05-12T18:19:04;96118.28;;;11.85;100.00
62510;BME280;48558;48.242;11.654;2023-05-12T18:23:17;96101.66;;;11.70;100.00
62510;BME280;48558;48.242;11.654;2023-05-12T18:27:30;96118.94;;;11.80;100.00
62510;BME280;48558;48.242;11.654;2023-05-12T18:31:42;96108.81;;;11.77;100.00
62510;BME280;48558;48.242;11.654;2023-05-12T18:35:55;96110.72;;;11.71;100.00
62510;BME280;48558;48.242;11.654;2023-05-12T18:40:08;96110.19;;;11.58;100.00
62510;BME280;48558;48.242;11.654;2023-05-12T18:44:21;96121.34;;;11.48;100.00
62510;BME280;48558;48.242;11.654;2023-05-12T18:48:34;96114.84;;;11.51;100.00
62510;BME280;48558;48.242;11.654;2023-05-12T18:52:46;96122.75;;;11.44;100.00
62510;BME280;48558;48.242;11.654;2023-05-12T18:56:59;96120.97;;;11.32;100.00
62510;BME280;48558;48.242;11.654;2023-05-12T19:01:12;96132.47;;;11.39;100.00
62510;BME280;48558;48.242;11.654;2023-05-12T19:05:35;96129.00;;;11.30;100.00
62510;BME280;48558;48.242;11.654;2023-05-12T19:09:48;96126.88;;;11.25;100.00
62510;BME280;48558;48.242;11.654;2023-05-12T19:14:00;96132.47;;;11.16;100.00
62510;BME280;48558;48.242;11.654;2023-05-12T19:18:13;96126.44;;;11.17;100.00
62510;BME280;48558;48.242;11.654;2023-05-12T19:22:26;96136.47;;;11.15;100.00
62510;BME280;48558;48.242;11.654;2023-05-12T19:26:39;96126.81;;;11.10;100.00
62510;BME280;48558;48.242;11.654;2023-05-12T19:30:51;96141.28;;;11.05;100.00
62510;BME280;48558;48.242;11.654;2023-05-12T19:35:06;96141.59;;;11.07;100.00
62510;BME280;48558;48.242;11.654;2023-05-12T19:39:31;96145.28;;;11.04;100.00
62510;BME280;48558;48.242;11.654;2023-05-12T19:43:44;96154.16;;;11.08;100.00
62510;BME280;48558;48.242;11.654;2023-05-12T19:47:56;96149.75;;;11.02;100.00
62510;BME280;48558;48.242;11.654;2023-05-12T19:52:20;96153.72;;;11.10;100.00
62510;BME280;48558;48.242;11.654;2023-05-12T19:56:33;96146.63;;;11.09;100.00
62510;BME280;48558;48.242;11.654;2023-05-12T20:00:45;96153.47;;;11.22;100.00
62510;BME280;48558;48.242;11.654;2023-05-12T20:04:59;96141.28;;;11.05;100.00
62510;BME280;48558;48.242;11.654;2023-05-12T20:09:11;96148.84;;;10.96;100.00
62510;BME280;48558;48.242;11.654;2023-05-12T20:13:34;96139.63;;;10.99;100.00
62510;BME280;48558;48.242;11.654;2023-05-12T20:17:54;96151.16;;;10.97;100.00
62510;BME280;48558;48.242;11.654;2023-05-12T20:22:07;96151.75;;;11.01;100.00
62510;BME280;48558;48.242;11.654;2023-05-12T20:26:20;96134.66;;;10.79;100.00
62510;BME280;48558;48.242;11.654;2023-05-12T20:30:40;96144.56;;;10.95;100.00
62510;BME280;48558;48.242;11.654;2023-05-12T20:34:52;96138.06;;;10.74;100.00
62510;BME280;48558;48.242;11.654;2023-05-12T20:39:05;96141.97;;;10.91;100.00
62510;BME280;48558;48.242;11.654;2023-05-12T20:43:20;96139.44;;;10.78;100.00
62510;BME280;48558;48.242;11.654;2023-05-12T20:47:33;96144.75;;;10.91;100.00
62510;BME280;48558;48.242;11.654;2023-05-12T20:51:46;96138.97;;;10.80;100.00
62510;BME280;48558;48.242;11.654;2023-05-12T20:55:58;96138.06;;;10.74;100.00
62510;BME280;48558;48.242;11.654;2023-05-12T21:00:11;96133.34;;;10.65;100.00
62510;BME280;48558;48.242;11.654;2023-05-12T21:04:24;96140.22;;;10.70;100.00
62510;BME280;48558;48.242;11.654;2023-05-12T21:08:37;96136.25;;;10.71;100.00
62510;BME280;48558;48.242;11.654;2023-05-12T21:13:00;96137.59;;;10.75;100.00
62510;BME280;48558;48.242;11.654;2023-05-12T21:17:12;96148.50;;;10.70;100.00
62510;BME280;48558;48.242;11.654;2023-05-12T21:21:37;96152.53;;;10.69;100.00
62510;BME280;48558;48.242;11.654;2023-05-12T21:25:52;96137.97;;;10.59;100.00
62510;BME280;48558;48.242;11.654;2023-05-12T21:30:08;96149.94;;;10.56;100.00
62510;BME280;48558;48.242;11.654;2023-05-12T21:34:21;96149.47;;;10.67;100.00
62510;BME280;48558;48.242;11.654;2023-05-12T21:38:44;96142.88;;;10.64;100.00
62510;BME280;48558;48.242;11.654;2023-05-12T21:42:56;96137.50;;;10.61;100.00
62510;BME280;48558;48.242;11.654;2023-05-12T21:47:09;96154.25;;;10.57;100.00
62510;BME280;48558;48.242;11.654;2023-05-12T21:51:22;96149.19;;;10.56;100.00
62510;BME280;48558;48.242;11.654;2023-05-12T21:55:34;96149.91;;;10.65;100.00
62510;BME280;48558;48.242;11.654;2023-05-12T21:59:47;96149.06;;;10.50;100.00
62510;BME280;48558;48.242;11.654;2023-05-12T22:04:00;96153.47;;;10.57;100.00
62510;BME280;48558;48.242;11.654;2023-05-12T22:08:13;96148.59;;;10.52;100.00